Crecy, Texas
Current Conditions -  °F | °C
As of 7:53 PM on Sunday 21 Dec 2014 (Local Time) from KLFK Reporting Station
Overcast Overcast  
Wind Chill: 53°   Ceiling: 2600
Heat Index: 53°   Visibility: 9mi
Dew Point: 47°   Wind: 7mph
Humidity: 80%   Direction: 130°SE
Pressure: 29.92"   Gusts: NA
Location:  31.0585°N, 95.0561°W
Report Text: KLFK 220153Z AUTO 13006KT 9SM OVC026 12/08 A2992 RMK AO2 SLP130 T01170083
Loading
Personal Weather Stations






























Interactive Weather Map New forecast layout! Learn more

10-Day Weather Forecast

Advertisements
Track Severe Weather on mobile